sensor_id;sensor_type;location;lat;lon;timestamp;temperature;humidity
18741;DHT22;9499;52.472;13.448;2023-04-03T00:00:34;2.30;1.00
18741;DHT22;9499;52.472;13.448;2023-04-03T00:03:01;2.20;1.00
18741;DHT22;9499;52.472;13.448;2023-04-03T00:05:28;2.20;1.00
18741;DHT22;9499;52.472;13.448;2023-04-03T00:07:55;2.20;1.00
18741;DHT22;9499;52.472;13.448;2023-04-03T00:10:21;2.20;1.00
18741;DHT22;9499;52.472;13.448;2023-04-03T00:12:48;2.20;1.00
18741;DHT22;9499;52.472;13.448;2023-04-03T00:15:15;2.20;1.00
18741;DHT22;9499;52.472;13.448;2023-04-03T00:17:41;2.20;1.00
18741;DHT22;9499;52.472;13.448;2023-04-03T00:20:10;2.20;1.00
18741;DHT22;9499;52.472;13.448;2023-04-03T00:22:36;2.20;1.00
18741;DHT22;9499;52.472;13.448;2023-04-03T00:25:03;2.20;1.00
18741;DHT22;9499;52.472;13.448;2023-04-03T00:27:30;2.20;1.00
18741;DHT22;9499;52.472;13.448;2023-04-03T00:29:56;2.10;1.00
18741;DHT22;9499;52.472;13.448;2023-04-03T00:32:23;2.10;1.00
18741;DHT22;9499;52.472;13.448;2023-04-03T00:34:49;2.10;1.00
18741;DHT22;9499;52.472;13.448;2023-04-03T00:37:17;2.10;1.00
18741;DHT22;9499;52.472;13.448;2023-04-03T00:39:43;2.10;1.00
18741;DHT22;9499;52.472;13.448;2023-04-03T00:42:10;2.10;1.00
18741;DHT22;9499;52.472;13.448;2023-04-03T00:45:22;2.10;99.90
18741;DHT22;9499;52.472;13.448;2023-04-03T00:47:49;2.10;99.90
18741;DHT22;9499;52.472;13.448;2023-04-03T00:50:16;2.10;99.90
18741;DHT22;9499;52.472;13.448;2023-04-03T00:52:45;2.10;99.90
18741;DHT22;9499;52.472;13.448;2023-04-03T00:55:14;2.10;99.90
18741;DHT22;9499;52.472;13.448;2023-04-03T00:57:41;2.10;1.00
18741;DHT22;9499;52.472;13.448;2023-04-03T01:00:10;2.10;9.30
18741;DHT22;9499;52.472;13.448;2023-04-03T01:02:38;2.10;1.00
18741;DHT22;9499;52.472;13.448;2023-04-03T01:05:07;2.10;1.00
18741;DHT22;9499;52.472;13.448;2023-04-03T01:07:34;2.10;1.00
18741;DHT22;9499;52.472;13.448;2023-04-03T01:10:05;2.10;7.00
18741;DHT22;9499;52.472;13.448;2023-04-03T01:12:34;2.10;1.00
18741;DHT22;9499;52.472;13.448;2023-04-03T01:15:03;2.10;1.00
18741;DHT22;9499;52.472;13.448;2023-04-03T01:17:32;2.10;1.00
18741;DHT22;9499;52.472;13.448;2023-04-03T01:23:19;2.00;1.00
18741;DHT22;9499;52.472;13.448;2023-04-03T01:25:52;2.00;69.10
18741;DHT22;9499;52.472;13.448;2023-04-03T01:28:20;2.00;1.00
18741;DHT22;9499;52.472;13.448;2023-04-03T01:30:50;2.00;99.90
18741;DHT22;9499;52.472;13.448;2023-04-03T01:33:19;2.00;99.90
18741;DHT22;9499;52.472;13.448;2023-04-03T01:35:45;1.90;1.00
18741;DHT22;9499;52.472;13.448;2023-04-03T01:38:12;1.90;99.90
18741;DHT22;9499;52.472;13.448;2023-04-03T01:40:38;1.90;99.90
18741;DHT22;9499;52.472;13.448;2023-04-03T01:43:05;1.80;99.90
18741;DHT22;9499;52.472;13.448;2023-04-03T01:45:31;1.80;99.90
18741;DHT22;9499;52.472;13.448;2023-04-03T01:47:58;1.80;99.90
18741;DHT22;9499;52.472;13.448;2023-04-03T01:50:26;1.80;99.90
18741;DHT22;9499;52.472;13.448;2023-04-03T01:52:52;1.80;99.90
18741;DHT22;9499;52.472;13.448;2023-04-03T01:55:18;1.80;1.00
18741;DHT22;9499;52.472;13.448;2023-04-03T01:57:45;1.80;1.00
18741;DHT22;9499;52.472;13.448;2023-04-03T02:00:12;1.80;1.00
18741;DHT22;9499;52.472;13.448;2023-04-03T02:02:39;1.80;99.90
18741;DHT22;9499;52.472;13.448;2023-04-03T02:05:07;1.80;1.00
18741;DHT22;9499;52.472;13.448;2023-04-03T02:07:35;1.80;1.00
18741;DHT22;9499;52.472;13.448;2023-04-03T02:10:01;1.80;99.90
18741;DHT22;9499;52.472;13.448;2023-04-03T02:12:28;1.80;1.00
18741;DHT22;9499;52.472;13.448;2023-04-03T02:14:54;1.80;1.00
18741;DHT22;9499;52.472;13.448;2023-04-03T02:17:21;1.80;1.00
18741;DHT22;9499;52.472;13.448;2023-04-03T02:19:47;1.80;1.00
18741;DHT22;9499;52.472;13.448;2023-04-03T02:22:14;1.80;1.00
18741;DHT22;9499;52.472;13.448;2023-04-03T02:24:42;1.80;1.00
18741;DHT22;9499;52.472;13.448;2023-04-03T02:27:09;1.70;1.00
18741;DHT22;9499;52.472;13.448;2023-04-03T02:29:35;1.80;1.00
18741;DHT22;9499;52.472;13.448;2023-04-03T02:32:02;1.70;1.00
18741;DHT22;9499;52.472;13.448;2023-04-03T02:34:28;1.70;1.00
18741;DHT22;9499;52.472;13.448;2023-04-03T02:36:55;1.70;1.00
18741;DHT22;9499;52.472;13.448;2023-04-03T02:39:22;1.70;99.90
18741;DHT22;9499;52.472;13.448;2023-04-03T02:41:50;1.60;99.90
18741;DHT22;9499;52.472;13.448;2023-04-03T02:44:16;1.60;99.90
18741;DHT22;9499;52.472;13.448;2023-04-03T02:46:43;1.60;99.90
18741;DHT22;9499;52.472;13.448;2023-04-03T02:49:09;1.50;99.90
18741;DHT22;9499;52.472;13.448;2023-04-03T02:51:36;1.50;99.90
18741;DHT22;9499;52.472;13.448;2023-04-03T02:54:02;1.50;99.90
18741;DHT22;9499;52.472;13.448;2023-04-03T02:56:29;1.50;99.90
18741;DHT22;9499;52.472;13.448;2023-04-03T02:58:57;1.50;99.90
18741;DHT22;9499;52.472;13.448;2023-04-03T03:01:24;1.50;99.90
18741;DHT22;9499;52.472;13.448;2023-04-03T03:03:52;1.50;99.90
18741;DHT22;9499;52.472;13.448;2023-04-03T03:06:18;1.50;99.90
18741;DHT22;9499;52.472;13.448;2023-04-03T03:08:45;1.50;99.90
18741;DHT22;9499;52.472;13.448;2023-04-03T03:11:12;1.50;99.90
18741;DHT22;9499;52.472;13.448;2023-04-03T03:13:38;1.50;99.90
18741;DHT22;9499;52.472;13.448;2023-04-03T03:16:06;1.50;99.90
18741;DHT22;9499;52.472;13.448;2023-04-03T03:18:34;1.40;99.90
18741;DHT22;9499;52.472;13.448;2023-04-03T03:21:01;1.40;99.90
18741;DHT22;9499;52.472;13.448;2023-04-03T03:23:30;1.40;99.90
18741;DHT22;9499;52.472;13.448;2023-04-03T03:25:59;1.30;1.00
18741;DHT22;9499;52.472;13.448;2023-04-03T03:28:26;1.30;1.00
18741;DHT22;9499;52.472;13.448;2023-04-03T03:30:53;1.30;1.00
18741;DHT22;9499;52.472;13.448;2023-04-03T03:33:21;1.30;1.00
18741;DHT22;9499;52.472;13.448;2023-04-03T03:35:47;1.30;1.00
18741;DHT22;9499;52.472;13.448;2023-04-03T03:38:14;1.30;1.00
18741;DHT22;9499;52.472;13.448;2023-04-03T03:40:40;1.20;1.00
18741;DHT22;9499;52.472;13.448;2023-04-03T03:43:07;1.30;1.00
18741;DHT22;9499;52.472;13.448;2023-04-03T03:45:33;1.20;1.00
18741;DHT22;9499;52.472;13.448;2023-04-03T03:48:01;1.30;1.00
18741;DHT22;9499;52.472;13.448;2023-04-03T03:50:29;1.20;1.00
18741;DHT22;9499;52.472;13.448;2023-04-03T03:52:55;1.20;1.00
18741;DHT22;9499;52.472;13.448;2023-04-03T03:55:22;1.20;1.00
18741;DHT22;9499;52.472;13.448;2023-04-03T03:57:48;1.20;1.00
18741;DHT22;9499;52.472;13.448;2023-04-03T04:00:15;1.20;1.00
18741;DHT22;9499;52.472;13.448;2023-04-03T04:02:42;1.20;1.00
18741;DHT22;9499;52.472;13.448;2023-04-03T04:05:08;1.10;1.00
18741;DHT22;9499;52.472;13.448;2023-04-03T04:07:36;1.10;1.00
18741;DHT22;9499;52.472;13.448;2023-04-03T04:10:04;1.10;1.00
18741;DHT22;9499;52.472;13.448;2023-04-03T04:12:30;1.10;1.00
18741;DHT22;9499;52.472;13.448;2023-04-03T04:14:57;1.10;1.00
18741;DHT22;9499;52.472;13.448;2023-04-03T04:17:23;1.10;1.00
18741;DHT22;9499;52.472;13.448;2023-04-03T04:19:50;1.10;1.00
18741;DHT22;9499;52.472;13.448;2023-04-03T04:22:16;1.10;1.00
18741;DHT22;9499;52.472;13.448;2023-04-03T04:24:44;1.10;1.00
18741;DHT22;9499;52.472;13.448;2023-04-03T04:27:10;1.00;1.00
18741;DHT22;9499;52.472;13.448;2023-04-03T04:29:37;1.00;1.00
18741;DHT22;9499;52.472;13.448;2023-04-03T04:32:04;1.00;1.00
18741;DHT22;9499;52.472;13.448;2023-04-03T04:34:30;1.00;1.00
18741;DHT22;9499;52.472;13.448;2023-04-03T04:36:57;1.00;1.00
18741;DHT22;9499;52.472;13.448;2023-04-03T04:39:23;1.00;1.00
18741;DHT22;9499;52.472;13.448;2023-04-03T04:41:51;1.00;1.00
18741;DHT22;9499;52.472;13.448;2023-04-03T04:44:18;1.00;1.00
18741;DHT22;9499;52.472;13.448;2023-04-03T04:46:45;1.00;1.00
18741;DHT22;9499;52.472;13.448;2023-04-03T04:49:11;1.00;1.00
18741;DHT22;9499;52.472;13.448;2023-04-03T04:51:38;1.00;1.00
18741;DHT22;9499;52.472;13.448;2023-04-03T04:54:04;1.00;1.00
18741;DHT22;9499;52.472;13.448;2023-04-03T04:56:31;0.90;1.00
18741;DHT22;9499;52.472;13.448;2023-04-03T04:59:00;1.00;1.00
18741;DHT22;9499;52.472;13.448;2023-04-03T05:01:27;1.00;1.00
18741;DHT22;9499;52.472;13.448;2023-04-03T05:03:54;1.00;1.00
18741;DHT22;9499;52.472;13.448;2023-04-03T05:06:20;1.00;1.00
18741;DHT22;9499;52.472;13.448;2023-04-03T05:08:47;1.00;1.00
18741;DHT22;9499;52.472;13.448;2023-04-03T05:11:13;1.00;1.00
18741;DHT22;9499;52.472;13.448;2023-04-03T05:13:40;1.00;1.00
18741;DHT22;9499;52.472;13.448;2023-04-03T05:16:08;1.00;1.00
18741;DHT22;9499;52.472;13.448;2023-04-03T05:18:34;1.10;1.00
18741;DHT22;9499;52.472;13.448;2023-04-03T05:21:01;1.10;1.00
18741;DHT22;9499;52.472;13.448;2023-04-03T05:23:27;1.10;1.00
18741;DHT22;9499;52.472;13.448;2023-04-03T05:25:54;1.10;1.00
18741;DHT22;9499;52.472;13.448;2023-04-03T05:28:20;1.10;1.00
18741;DHT22;9499;52.472;13.448;2023-04-03T05:30:52;1.10;1.00
18741;DHT22;9499;52.472;13.448;2023-04-03T05:33:22;1.20;1.00
18741;DHT22;9499;52.472;13.448;2023-04-03T05:35:49;1.20;1.00
18741;DHT22;9499;52.472;13.448;2023-04-03T05:38:15;1.20;1.00
18741;DHT22;9499;52.472;13.448;2023-04-03T05:40:42;1.30;1.00
18741;DHT22;9499;52.472;13.448;2023-04-03T05:43:08;1.30;1.00
18741;DHT22;9499;52.472;13.448;2023-04-03T05:45:35;1.30;1.00
18741;DHT22;9499;52.472;13.448;2023-04-03T05:48:01;1.30;1.00
18741;DHT22;9499;52.472;13.448;2023-04-03T05:50:29;1.40;1.00
18741;DHT22;9499;52.472;13.448;2023-04-03T05:52:57;1.30;1.00
18741;DHT22;9499;52.472;13.448;2023-04-03T05:55:25;1.40;1.00
18741;DHT22;9499;52.472;13.448;2023-04-03T05:57:51;1.40;1.00
18741;DHT22;9499;52.472;13.448;2023-04-03T06:00:18;1.40;1.00
18741;DHT22;9499;52.472;13.448;2023-04-03T06:02:46;1.50;1.00
18741;DHT22;9499;52.472;13.448;2023-04-03T06:05:12;1.50;1.00
18741;DHT22;9499;52.472;13.448;2023-04-03T06:07:41;1.50;1.00
18741;DHT22;9499;52.472;13.448;2023-04-03T06:10:08;1.60;1.00
18741;DHT22;9499;52.472;13.448;2023-04-03T06:12:35;1.60;1.00
18741;DHT22;9499;52.472;13.448;2023-04-03T06:15:01;1.60;1.00
18741;DHT22;9499;52.472;13.448;2023-04-03T06:17:29;1.60;1.00
18741;DHT22;9499;52.472;13.448;2023-04-03T06:19:56;1.60;1.00
18741;DHT22;9499;52.472;13.448;2023-04-03T06:22:23;1.70;1.00
18741;DHT22;9499;52.472;13.448;2023-04-03T06:24:52;1.70;99.90
18741;DHT22;9499;52.472;13.448;2023-04-03T06:27:19;1.70;99.90
18741;DHT22;9499;52.472;13.448;2023-04-03T06:29:45;1.70;99.90
18741;DHT22;9499;52.472;13.448;2023-04-03T06:32:12;1.80;99.90
18741;DHT22;9499;52.472;13.448;2023-04-03T06:34:38;1.80;99.90
18741;DHT22;9499;52.472;13.448;2023-04-03T06:37:05;1.90;43.30
18741;DHT22;9499;52.472;13.448;2023-04-03T06:39:35;2.00;1.00
18741;DHT22;9499;52.472;13.448;2023-04-03T06:42:04;2.00;99.90
18741;DHT22;9499;52.472;13.448;2023-04-03T06:44:31;2.00;99.90
18741;DHT22;9499;52.472;13.448;2023-04-03T06:46:59;1.90;99.90
18741;DHT22;9499;52.472;13.448;2023-04-03T06:49:25;2.10;99.90
18741;DHT22;9499;52.472;13.448;2023-04-03T06:51:53;2.20;1.00
18741;DHT22;9499;52.472;13.448;2023-04-03T06:54:19;2.20;10.60
18741;DHT22;9499;52.472;13.448;2023-04-03T06:56:46;2.20;99.90
18741;DHT22;9499;52.472;13.448;2023-04-03T06:59:14;2.30;1.00
18741;DHT22;9499;52.472;13.448;2023-04-03T07:01:40;2.40;1.00
18741;DHT22;9499;52.472;13.448;2023-04-03T07:04:07;2.40;99.90
18741;DHT22;9499;52.472;13.448;2023-04-03T07:06:34;2.50;99.90
18741;DHT22;9499;52.472;13.448;2023-04-03T07:09:01;2.60;99.90
18741;DHT22;9499;52.472;13.448;2023-04-03T07:11:28;2.60;99.90
18741;DHT22;9499;52.472;13.448;2023-04-03T07:13:54;2.60;99.90
18741;DHT22;9499;52.472;13.448;2023-04-03T07:16:23;2.60;42.80
18741;DHT22;9499;52.472;13.448;2023-04-03T07:18:49;2.60;1.00
18741;DHT22;9499;52.472;13.448;2023-04-03T07:21:16;2.70;99.90
18741;DHT22;9499;52.472;13.448;2023-04-03T07:23:43;2.80;99.90
18741;DHT22;9499;52.472;13.448;2023-04-03T07:26:10;2.80;1.00
18741;DHT22;9499;52.472;13.448;2023-04-03T07:28:36;2.90;1.00
18741;DHT22;9499;52.472;13.448;2023-04-03T07:31:07;3.10;99.90
18741;DHT22;9499;52.472;13.448;2023-04-03T07:33:37;3.10;1.00
18741;DHT22;9499;52.472;13.448;2023-04-03T07:36:05;3.20;1.00
18741;DHT22;9499;52.472;13.448;2023-04-03T07:38:33;3.30;1.00
18741;DHT22;9499;52.472;13.448;2023-04-03T07:41:00;3.50;1.00
18741;DHT22;9499;52.472;13.448;2023-04-03T07:43:27;3.60;1.00
18741;DHT22;9499;52.472;13.448;2023-04-03T07:45:53;3.70;1.00
18741;DHT22;9499;52.472;13.448;2023-04-03T07:48:21;3.70;99.90
18741;DHT22;9499;52.472;13.448;2023-04-03T07:50:49;3.80;99.90
18741;DHT22;9499;52.472;13.448;2023-04-03T07:53:16;3.90;19.70
18741;DHT22;9499;52.472;13.448;2023-04-03T07:55:43;3.80;1.00
18741;DHT22;9499;52.472;13.448;2023-04-03T07:58:11;3.90;1.00
18741;DHT22;9499;52.472;13.448;2023-04-03T08:00:38;3.90;1.00
18741;DHT22;9499;52.472;13.448;2023-04-03T08:03:06;3.90;1.00
18741;DHT22;9499;52.472;13.448;2023-04-03T08:05:36;3.90;1.00
18741;DHT22;9499;52.472;13.448;2023-04-03T08:08:04;4.00;1.00
18741;DHT22;9499;52.472;13.448;2023-04-03T08:10:32;4.00;1.00
18741;DHT22;9499;52.472;13.448;2023-04-03T08:12:59;4.00;1.00
18741;DHT22;9499;52.472;13.448;2023-04-03T08:15:25;4.00;1.00
18741;DHT22;9499;52.472;13.448;2023-04-03T08:17:52;4.10;53.40
18741;DHT22;9499;52.472;13.448;2023-04-03T08:20:19;4.20;37.00
18741;DHT22;9499;52.472;13.448;2023-04-03T08:22:45;4.20;64.40
18741;DHT22;9499;52.472;13.448;2023-04-03T08:25:13;4.20;58.10
18741;DHT22;9499;52.472;13.448;2023-04-03T08:27:40;4.30;1.00
18741;DHT22;9499;52.472;13.448;2023-04-03T08:30:07;4.30;1.00
18741;DHT22;9499;52.472;13.448;2023-04-03T08:32:35;4.30;1.00
18741;DHT22;9499;52.472;13.448;2023-04-03T08:35:01;4.30;1.00
18741;DHT22;9499;52.472;13.448;2023-04-03T08:37:28;4.20;1.00
18741;DHT22;9499;52.472;13.448;2023-04-03T08:39:55;4.10;1.00
18741;DHT22;9499;52.472;13.448;2023-04-03T08:42:34;4.20;1.00
18741;DHT22;9499;52.472;13.448;2023-04-03T08:45:09;4.30;1.00
18741;DHT22;9499;52.472;13.448;2023-04-03T08:47:42;4.40;1.00
18741;DHT22;9499;52.472;13.448;2023-04-03T08:50:14;4.40;1.00
18741;DHT22;9499;52.472;13.448;2023-04-03T08:52:44;4.40;99.90
18741;DHT22;9499;52.472;13.448;2023-04-03T08:55:20;4.20;99.90
18741;DHT22;9499;52.472;13.448;2023-04-03T08:57:51;4.20;99.90
18741;DHT22;9499;52.472;13.448;2023-04-03T09:00:23;4.20;99.90
18741;DHT22;9499;52.472;13.448;2023-04-03T09:02:51;4.20;99.90
18741;DHT22;9499;52.472;13.448;2023-04-03T09:05:33;4.20;99.90
18741;DHT22;9499;52.472;13.448;2023-04-03T09:08:07;4.30;99.90
18741;DHT22;9499;52.472;13.448;2023-04-03T09:10:40;4.30;99.90
18741;DHT22;9499;52.472;13.448;2023-04-03T09:13:17;4.40;99.90
18741;DHT22;9499;52.472;13.448;2023-04-03T09:15:45;4.60;99.90
18741;DHT22;9499;52.472;13.448;2023-04-03T09:18:17;4.60;99.90
18741;DHT22;9499;52.472;13.448;2023-04-03T09:20:49;4.60;99.90
18741;DHT22;9499;52.472;13.448;2023-04-03T09:23:24;4.60;99.90
18741;DHT22;9499;52.472;13.448;2023-04-03T09:25:56;4.70;99.90
18741;DHT22;9499;52.472;13.448;2023-04-03T09:28:25;4.80;99.90
18741;DHT22;9499;52.472;13.448;2023-04-03T09:30:52;4.90;97.90
18741;DHT22;9499;52.472;13.448;2023-04-03T09:33:20;5.00;52.30
18741;DHT22;9499;52.472;13.448;2023-04-03T09:35:48;5.00;30.30
18741;DHT22;9499;52.472;13.448;2023-04-03T09:38:19;5.10;16.90
18741;DHT22;9499;52.472;13.448;2023-04-03T09:40:49;5.20;1.00
18741;DHT22;9499;52.472;13.448;2023-04-03T09:43:26;5.30;1.00
18741;DHT22;9499;52.472;13.448;2023-04-03T09:45:54;5.50;1.00
18741;DHT22;9499;52.472;13.448;2023-04-03T09:48:22;5.70;1.00
18741;DHT22;9499;52.472;13.448;2023-04-03T09:50:58;5.60;1.00
18741;DHT22;9499;52.472;13.448;2023-04-03T09:53:29;5.70;1.00
18741;DHT22;9499;52.472;13.448;2023-04-03T09:55:56;5.70;1.00
18741;DHT22;9499;52.472;13.448;2023-04-03T09:58:27;5.90;1.00
18741;DHT22;9499;52.472;13.448;2023-04-03T10:00:55;6.00;1.00
18741;DHT22;9499;52.472;13.448;2023-04-03T10:03:25;6.00;1.00
18741;DHT22;9499;52.472;13.448;2023-04-03T10:05:52;5.90;1.00
18741;DHT22;9499;52.472;13.448;2023-04-03T10:08:22;5.90;1.00
18741;DHT22;9499;52.472;13.448;2023-04-03T10:11:07;5.90;1.00
18741;DHT22;9499;52.472;13.448;2023-04-03T10:13:49;5.80;1.00
18741;DHT22;9499;52.472;13.448;2023-04-03T10:16:18;6.20;1.00
18741;DHT22;9499;52.472;13.448;2023-04-03T10:18:49;6.50;1.00
18741;DHT22;9499;52.472;13.448;2023-04-03T10:21:28;6.50;1.00
18741;DHT22;9499;52.472;13.448;2023-04-03T10:24:01;6.30;1.00
18741;DHT22;9499;52.472;13.448;2023-04-03T10:26:35;6.20;1.00
18741;DHT22;9499;52.472;13.448;2023-04-03T10:29:10;6.20;1.00
18741;DHT22;9499;52.472;13.448;2023-04-03T10:31:45;6.10;1.00
18741;DHT22;9499;52.472;13.448;2023-04-03T10:34:21;6.20;1.00
18741;DHT22;9499;52.472;13.448;2023-04-03T10:36:53;6.10;1.00
18741;DHT22;9499;52.472;13.448;2023-04-03T10:39:30;6.20;1.00
18741;DHT22;9499;52.472;13.448;2023-04-03T10:42:04;6.30;1.00
18741;DHT22;9499;52.472;13.448;2023-04-03T10:44:47;6.30;1.00
18741;DHT22;9499;52.472;13.448;2023-04-03T10:47:21;6.30;1.00
18741;DHT22;9499;52.472;13.448;2023-04-03T10:49:56;6.40;1.00
18741;DHT22;9499;52.472;13.448;2023-04-03T10:52:29;6.40;1.00
18741;DHT22;9499;52.472;13.448;2023-04-03T10:55:02;6.30;1.00
18741;DHT22;9499;52.472;13.448;2023-04-03T10:57:33;6.20;1.00
18741;DHT22;9499;52.472;13.448;2023-04-03T11:00:05;6.10;1.00
18741;DHT22;9499;52.472;13.448;2023-04-03T11:02:37;6.00;1.00
18741;DHT22;9499;52.472;13.448;2023-04-03T11:05:15;6.10;1.00
18741;DHT22;9499;52.472;13.448;2023-04-03T11:07:48;6.10;1.00
18741;DHT22;9499;52.472;13.448;2023-04-03T11:10:22;6.00;1.00
18741;DHT22;9499;52.472;13.448;2023-04-03T11:12:52;6.10;1.00
18741;DHT22;9499;52.472;13.448;2023-04-03T11:15:24;6.10;1.00
18741;DHT22;9499;52.472;13.448;2023-04-03T11:17:55;6.00;1.00
18741;DHT22;9499;52.472;13.448;2023-04-03T11:20:27;6.00;1.00
18741;DHT22;9499;52.472;13.448;2023-04-03T11:23:01;5.90;1.00
18741;DHT22;9499;52.472;13.448;2023-04-03T11:25:30;6.00;1.00
18741;DHT22;9499;52.472;13.448;2023-04-03T11:27:59;6.00;1.00
18741;DHT22;9499;52.472;13.448;2023-04-03T11:30:32;6.10;1.00
18741;DHT22;9499;52.472;13.448;2023-04-03T11:33:20;6.20;1.00
18741;DHT22;9499;52.472;13.448;2023-04-03T11:35:50;6.20;1.00
18741;DHT22;9499;52.472;13.448;2023-04-03T11:38:21;6.20;1.00
18741;DHT22;9499;52.472;13.448;2023-04-03T11:40:49;6.30;1.00
18741;DHT22;9499;52.472;13.448;2023-04-03T11:43:25;6.20;1.00
18741;DHT22;9499;52.472;13.448;2023-04-03T11:45:55;6.10;1.00
18741;DHT22;9499;52.472;13.448;2023-04-03T11:48:45;6.10;1.00
18741;DHT22;9499;52.472;13.448;2023-04-03T11:51:40;6.10;1.00
18741;DHT22;9499;52.472;13.448;2023-04-03T11:54:46;6.10;19.20
18741;DHT22;9499;52.472;13.448;2023-04-03T11:57:45;6.10;19.80
18741;DHT22;9499;52.472;13.448;2023-04-03T12:00:45;6.00;99.90
18741;DHT22;9499;52.472;13.448;2023-04-03T12:03:32;6.20;99.90
18741;DHT22;9499;52.472;13.448;2023-04-03T12:09:28;6.30;24.60
18741;DHT22;9499;52.472;13.448;2023-04-03T12:11:57;6.10;1.00
18741;DHT22;9499;52.472;13.448;2023-04-03T12:14:25;6.10;43.80
18741;DHT22;9499;52.472;13.448;2023-04-03T12:16:53;6.20;99.90
18741;DHT22;9499;52.472;13.448;2023-04-03T12:19:35;6.30;99.90
18741;DHT22;9499;52.472;13.448;2023-04-03T12:22:13;6.30;19.70
18741;DHT22;9499;52.472;13.448;2023-04-03T12:24:41;6.20;1.00
18741;DHT22;9499;52.472;13.448;2023-04-03T12:27:29;6.20;1.00
18741;DHT22;9499;52.472;13.448;2023-04-03T12:30:14;6.30;1.00
18741;DHT22;9499;52.472;13.448;2023-04-03T12:32:48;6.40;1.00
18741;DHT22;9499;52.472;13.448;2023-04-03T12:35:24;6.40;1.00
18741;DHT22;9499;52.472;13.448;2023-04-03T12:38:18;6.40;1.00
18741;DHT22;9499;52.472;13.448;2023-04-03T12:40:54;6.50;1.00
18741;DHT22;9499;52.472;13.448;2023-04-03T12:43:35;6.40;1.00
18741;DHT22;9499;52.472;13.448;2023-04-03T12:46:07;6.40;1.00
18741;DHT22;9499;52.472;13.448;2023-04-03T12:48:39;6.40;1.00
18741;DHT22;9499;52.472;13.448;2023-04-03T12:51:15;6.50;1.00
18741;DHT22;9499;52.472;13.448;2023-04-03T12:53:43;6.70;1.00
18741;DHT22;9499;52.472;13.448;2023-04-03T12:56:23;6.60;1.00
18741;DHT22;9499;52.472;13.448;2023-04-03T12:58:51;6.50;1.00
18741;DHT22;9499;52.472;13.448;2023-04-03T13:01:21;6.40;1.00
18741;DHT22;9499;52.472;13.448;2023-04-03T13:03:50;6.30;1.00
18741;DHT22;9499;52.472;13.448;2023-04-03T13:06:21;6.20;1.00
18741;DHT22;9499;52.472;13.448;2023-04-03T13:08:50;6.10;1.00
18741;DHT22;9499;52.472;13.448;2023-04-03T13:11:17;6.20;1.00
18741;DHT22;9499;52.472;13.448;2023-04-03T13:13:55;6.20;1.00
18741;DHT22;9499;52.472;13.448;2023-04-03T13:16:22;6.20;1.00
18741;DHT22;9499;52.472;13.448;2023-04-03T13:18:51;6.40;1.00
18741;DHT22;9499;52.472;13.448;2023-04-03T13:21:21;6.50;1.00
18741;DHT22;9499;52.472;13.448;2023-04-03T13:23:51;6.60;1.00
18741;DHT22;9499;52.472;13.448;2023-04-03T13:26:21;6.60;1.00
18741;DHT22;9499;52.472;13.448;2023-04-03T13:28:49;6.60;1.00
18741;DHT22;9499;52.472;13.448;2023-04-03T13:31:20;6.60;1.00
18741;DHT22;9499;52.472;13.448;2023-04-03T13:33:55;6.70;1.00
18741;DHT22;9499;52.472;13.448;2023-04-03T13:36:26;6.60;1.00
18741;DHT22;9499;52.472;13.448;2023-04-03T13:39:03;6.60;1.00
18741;DHT22;9499;52.472;13.448;2023-04-03T13:41:31;6.40;1.00
18741;DHT22;9499;52.472;13.448;2023-04-03T13:44:28;6.20;1.00
18741;DHT22;9499;52.472;13.448;2023-04-03T13:46:57;6.20;1.00
18741;DHT22;9499;52.472;13.448;2023-04-03T13:49:30;6.10;1.00
18741;DHT22;9499;52.472;13.448;2023-04-03T13:51:59;6.10;1.00
18741;DHT22;9499;52.472;13.448;2023-04-03T13:54:30;6.10;1.00
18741;DHT22;9499;52.472;13.448;2023-04-03T13:56:58;6.10;1.00
18741;DHT22;9499;52.472;13.448;2023-04-03T13:59:28;6.00;1.00
18741;DHT22;9499;52.472;13.448;2023-04-03T14:02:13;6.00;22.70
18741;DHT22;9499;52.472;13.448;2023-04-03T14:04:52;5.90;30.30
18741;DHT22;9499;52.472;13.448;2023-04-03T14:07:22;6.00;47.40
18741;DHT22;9499;52.472;13.448;2023-04-03T14:09:49;6.00;93.00
18741;DHT22;9499;52.472;13.448;2023-04-03T14:12:24;6.10;99.90
18741;DHT22;9499;52.472;13.448;2023-04-03T14:14:52;6.10;99.90
18741;DHT22;9499;52.472;13.448;2023-04-03T14:17:21;6.20;79.80
18741;DHT22;9499;52.472;13.448;2023-04-03T14:19:48;6.30;41.60
18741;DHT22;9499;52.472;13.448;2023-04-03T14:22:18;6.60;11.40
18741;DHT22;9499;52.472;13.448;2023-04-03T14:24:52;6.60;1.00
18741;DHT22;9499;52.472;13.448;2023-04-03T14:27:20;6.80;1.00
18741;DHT22;9499;52.472;13.448;2023-04-03T14:29:48;6.90;1.00
18741;DHT22;9499;52.472;13.448;2023-04-03T14:32:16;7.00;1.00
18741;DHT22;9499;52.472;13.448;2023-04-03T14:34:44;6.90;1.00
18741;DHT22;9499;52.472;13.448;2023-04-03T14:37:12;7.20;1.00
18741;DHT22;9499;52.472;13.448;2023-04-03T14:39:39;7.70;1.00
18741;DHT22;9499;52.472;13.448;2023-04-03T14:42:11;8.10;1.00
18741;DHT22;9499;52.472;13.448;2023-04-03T14:44:38;8.30;1.00
18741;DHT22;9499;52.472;13.448;2023-04-03T14:47:08;8.30;1.00
18741;DHT22;9499;52.472;13.448;2023-04-03T14:49:35;8.30;1.00
18741;DHT22;9499;52.472;13.448;2023-04-03T14:52:01;8.10;1.00
18741;DHT22;9499;52.472;13.448;2023-04-03T14:54:28;7.80;1.00
18741;DHT22;9499;52.472;13.448;2023-04-03T14:56:57;7.50;1.00
18741;DHT22;9499;52.472;13.448;2023-04-03T14:59:26;7.20;1.00
18741;DHT22;9499;52.472;13.448;2023-04-03T15:01:53;7.10;1.00
18741;DHT22;9499;52.472;13.448;2023-04-03T15:04:20;6.90;1.00
18741;DHT22;9499;52.472;13.448;2023-04-03T15:06:48;6.70;1.00
18741;DHT22;9499;52.472;13.448;2023-04-03T15:09:20;6.60;25.80
18741;DHT22;9499;52.472;13.448;2023-04-03T15:11:47;6.50;99.90
18741;DHT22;9499;52.472;13.448;2023-04-03T15:14:14;6.50;99.90
18741;DHT22;9499;52.472;13.448;2023-04-03T15:16:42;6.40;99.90
18741;DHT22;9499;52.472;13.448;2023-04-03T15:19:09;6.30;99.90
18741;DHT22;9499;52.472;13.448;2023-04-03T15:21:35;6.20;99.90
18741;DHT22;9499;52.472;13.448;2023-04-03T15:24:02;6.10;99.90
18741;DHT22;9499;52.472;13.448;2023-04-03T15:26:29;6.10;1.00
18741;DHT22;9499;52.472;13.448;2023-04-03T15:28:55;6.00;1.00
18741;DHT22;9499;52.472;13.448;2023-04-03T15:31:22;6.00;1.00
18741;DHT22;9499;52.472;13.448;2023-04-03T15:33:50;5.90;1.00
18741;DHT22;9499;52.472;13.448;2023-04-03T15:36:16;5.80;1.00
18741;DHT22;9499;52.472;13.448;2023-04-03T15:38:43;5.80;1.00
18741;DHT22;9499;52.472;13.448;2023-04-03T15:41:09;5.70;1.00
18741;DHT22;9499;52.472;13.448;2023-04-03T15:43:36;5.70;1.00
18741;DHT22;9499;52.472;13.448;2023-04-03T15:46:03;5.70;1.00
18741;DHT22;9499;52.472;13.448;2023-04-03T15:48:30;5.60;1.00
18741;DHT22;9499;52.472;13.448;2023-04-03T15:50:58;5.60;1.00
18741;DHT22;9499;52.472;13.448;2023-04-03T15:53:25;5.60;35.70
18741;DHT22;9499;52.472;13.448;2023-04-03T15:55:52;5.60;99.90
18741;DHT22;9499;52.472;13.448;2023-04-03T15:58:18;5.60;77.20
18741;DHT22;9499;52.472;13.448;2023-04-03T16:00:45;5.60;1.00
18741;DHT22;9499;52.472;13.448;2023-04-03T16:03:14;5.60;1.00
18741;DHT22;9499;52.472;13.448;2023-04-03T16:05:41;5.50;38.00
18741;DHT22;9499;52.472;13.448;2023-04-03T16:08:10;5.60;99.90
18741;DHT22;9499;52.472;13.448;2023-04-03T16:10:37;5.60;1.00
18741;DHT22;9499;52.472;13.448;2023-04-03T16:13:04;5.60;1.00
18741;DHT22;9499;52.472;13.448;2023-04-03T16:15:32;5.60;28.50
18741;DHT22;9499;52.472;13.448;2023-04-03T16:17:59;6.00;99.90